Time;durP1;ratioP1;P1;durP2;ratioP2;P2;SDS_P1;SDS_P2;PMS_P1;PMS_P2;Temp;Humidity;BMP_temperature;BMP_pressure;BME280_temperature;BME280_humidity;BME280_pressure;Samples;Min_cycle;Max_cycle;Signal;HPM_P1;HPM_P2
2023/05/16 00:00:34;;;;;;;4.63;3.17;;;10.50;99.90;;;;;;5033960;28;20191;-48
2023/05/16 00:03:01;;;;;;;12.00;4.40;;;10.50;99.90;;;;;;5033815;28;20697;-48
2023/05/16 00:05:27;;;;;;;6.67;3.93;;;10.50;99.90;;;;;;5033679;28;20437;-49
2023/05/16 00:07:53;;;;;;;6.27;4.90;;;10.50;99.90;;;;;;5033492;28;20505;-49
2023/05/16 00:10:18;;;;;;;6.97;4.90;;;10.50;99.90;;;;;;5033434;28;20229;-49
2023/05/16 00:12:44;;;;;;;6.20;4.80;;;10.50;99.90;;;;;;5033536;28;20179;-49
2023/05/16 00:15:14;;;;;;;11.27;5.80;;;10.50;99.90;;;;;;5033494;28;20242;-49
2023/05/16 00:17:39;;;;;;;12.07;4.73;;;10.50;99.90;;;;;;5034000;28;20191;-48
2023/05/16 00:20:10;;;;;;;6.10;5.20;;;10.50;99.90;;;;;;5033567;28;20976;-49
2023/05/16 00:22:37;;;;;;;5.43;4.80;;;10.50;99.90;;;;;;5033632;28;20186;-49
2023/05/16 00:25:03;;;;;;;6.97;5.30;;;10.50;99.90;;;;;;5033607;28;20465;-49
2023/05/16 00:27:28;;;;;;;5.40;4.80;;;10.60;99.90;;;;;;5033579;28;20422;-49
2023/05/16 00:29:55;;;;;;;5.97;5.00;;;10.60;94.40;;;;;;5033233;28;20775;-48
2023/05/16 00:32:20;;;;;;;5.07;4.50;;;10.60;96.80;;;;;;5033199;28;20196;-49
2023/05/16 00:34:46;;;;;;;5.33;4.67;;;10.60;91.80;;;;;;5033198;28;20422;-49
2023/05/16 00:37:12;;;;;;;7.83;4.83;;;10.60;93.30;;;;;;5033135;28;20183;-49
2023/05/16 00:39:38;;;;;;;6.77;5.53;;;10.70;81.60;;;;;;5033356;28;20223;-49
2023/05/16 00:42:03;;;;;;;6.30;3.90;;;10.60;92.20;;;;;;5033207;28;20480;-48
2023/05/16 00:44:29;;;;;;;5.20;3.83;;;10.60;88.00;;;;;;5034366;28;20209;-49
2023/05/16 00:46:56;;;;;;;4.70;3.87;;;10.70;80.90;;;;;;5037431;28;20175;-48
2023/05/16 00:49:21;;;;;;;5.50;4.13;;;10.80;72.10;;;;;;5037324;28;20454;-49
2023/05/16 00:51:47;;;;;;;4.03;3.63;;;10.80;62.60;;;;;;5036923;28;20884;-48
2023/05/16 00:54:13;;;;;;;8.67;4.80;;;10.80;81.80;;;;;;5037270;28;20543;-49
2023/05/16 00:56:39;;;;;;;7.60;3.90;;;10.80;74.70;;;;;;5036963;28;20179;-49
2023/05/16 00:59:05;;;;;;;4.23;3.83;;;10.70;86.00;;;;;;5037131;28;20476;-49
2023/05/16 01:01:31;;;;;;;7.87;4.33;;;10.80;93.40;;;;;;5036877;28;20187;-49
2023/05/16 01:03:57;;;;;;;4.97;3.70;;;10.80;86.80;;;;;;5036795;28;20457;-48
2023/05/16 01:06:22;;;;;;;5.70;4.10;;;10.70;94.80;;;;;;5037081;28;20449;-48
2023/05/16 01:08:48;;;;;;;6.30;3.80;;;10.80;99.80;;;;;;5036749;28;20686;-49
2023/05/16 01:11:22;;;;;;;10.07;3.70;;;10.80;91.90;;;;;;5036971;28;20187;-49
2023/05/16 01:14:01;;;;;;;8.20;3.87;;;10.90;93.90;;;;;;5036707;28;20170;-48
2023/05/16 01:16:45;;;;;;;9.63;4.20;;;10.90;70.20;;;;;;5036912;28;20429;-49
2023/05/16 01:19:20;;;;;;;4.40;3.63;;;10.90;69.90;;;;;;5036639;28;20555;-49
2023/05/16 01:21:52;;;;;;;9.13;3.57;;;10.80;81.60;;;;;;5036564;28;20410;-48
2023/05/16 01:24:33;;;;;;;9.30;3.73;;;10.80;85.00;;;;;;5036765;28;20422;-48
2023/05/16 01:27:00;;;;;;;8.43;3.50;;;10.80;99.90;;;;;;5036433;28;20771;-48
2023/05/16 01:29:25;;;;;;;5.43;3.70;;;10.90;95.70;;;;;;5036700;28;20452;-48
2023/05/16 01:31:51;;;;;;;5.10;3.83;;;10.90;85.00;;;;;;5036255;28;20426;-49
2023/05/16 01:34:17;;;;;;;4.73;3.37;;;10.80;99.90;;;;;;5036606;28;20262;-49
2023/05/16 01:36:59;;;;;;;9.90;3.80;;;10.90;99.90;;;;;;5036545;28;20191;-48
2023/05/16 01:39:42;;;;;;;6.73;3.70;;;11.00;99.90;;;;;;5036435;28;20541;-49
2023/05/16 01:42:13;;;;;;;8.83;3.90;;;11.00;99.90;;;;;;5036195;28;20453;-48
2023/05/16 01:44:45;;;;;;;8.83;4.13;;;10.90;99.90;;;;;;5036153;28;20895;-48
2023/05/16 01:47:13;;;;;;;7.90;4.23;;;11.00;99.90;;;;;;5036390;28;20403;-49
2023/05/16 01:49:46;;;;;;;12.10;5.30;;;10.90;99.90;;;;;;5036427;28;20419;-48
2023/05/16 01:52:18;;;;;;;11.63;6.90;;;10.90;99.90;;;;;;5036275;28;20914;-48
2023/05/16 01:54:47;;;;;;;12.40;5.93;;;10.90;99.90;;;;;;5036252;28;20435;-48
2023/05/16 01:57:14;;;;;;;14.93;5.77;;;10.80;99.90;;;;;;5036156;28;20480;-49
2023/05/16 01:59:41;;;;;;;15.13;4.70;;;10.70;99.90;;;;;;5035717;28;20469;-49
2023/05/16 02:02:07;;;;;;;11.23;3.57;;;10.70;99.90;;;;;;5036068;28;20406;-49
2023/05/16 02:04:33;;;;;;;8.23;3.70;;;10.60;99.90;;;;;;5036058;28;20472;-48
2023/05/16 02:07:00;;;;;;;13.63;3.37;;;10.60;99.90;;;;;;5036024;28;20225;-49
2023/05/16 02:09:26;;;;;;;11.10;3.33;;;10.60;99.90;;;;;;5035891;28;20199;-48
2023/05/16 02:11:52;;;;;;;9.63;2.93;;;10.50;99.90;;;;;;5035510;28;20423;-49
2023/05/16 02:14:17;;;;;;;10.10;3.00;;;10.50;99.90;;;;;;5035794;28;20219;-49
2023/05/16 02:16:43;;;;;;;6.33;2.37;;;10.50;99.90;;;;;;5035486;28;20278;-49
2023/05/16 02:19:09;;;;;;;8.47;2.50;;;10.50;99.90;;;;;;5035643;28;20214;-48
2023/05/16 02:21:35;;;;;;;12.13;2.77;;;10.50;99.90;;;;;;5035371;28;20618;-48
2023/05/16 02:24:00;;;;;;;7.03;2.70;;;10.50;99.90;;;;;;5035649;28;20446;-48
2023/05/16 02:26:26;;;;;;;11.93;2.40;;;10.40;99.90;;;;;;5035317;28;20548;-48
2023/05/16 02:28:53;;;;;;;11.47;2.37;;;10.40;99.90;;;;;;5035296;28;20190;-49
2023/05/16 02:31:28;;;;;;;9.63;2.90;;;10.40;93.00;;;;;;5035482;28;20191;-49
2023/05/16 02:33:54;;;;;;;17.17;2.70;;;10.50;94.70;;;;;;5035425;28;20508;-49
2023/05/16 02:36:20;;;;;;;12.17;2.40;;;10.50;46.70;;;;;;5035184;28;20449;-49
2023/05/16 02:38:46;;;;;;;13.47;3.17;;;10.50;42.00;;;;;;5035069;28;20195;-48
2023/05/16 02:41:11;;;;;;;10.60;3.40;;;10.40;27.70;;;;;;5035572;28;20414;-48
2023/05/16 02:43:37;;;;;;;12.20;2.83;;;10.40;35.60;;;;;;5035256;28;20415;-48
2023/05/16 02:46:23;;;;;;;13.60;2.53;;;10.30;15.00;;;;;;5035413;28;20262;-48
2023/05/16 02:48:50;;;;;;;12.43;3.07;;;10.40;25.40;;;;;;5035262;28;20539;-48
2023/05/16 02:51:16;;;;;;;10.90;2.90;;;10.40;23.10;;;;;;5034732;28;20527;-49
2023/05/16 02:53:41;;;;;;;15.87;3.10;;;10.40;11.20;;;;;;5035055;28;20419;-49
2023/05/16 02:56:07;;;;;;;11.50;2.87;;;10.40;1.00;;;;;;5035113;28;20195;-48
2023/05/16 02:58:33;;;;;;;12.43;2.77;;;10.40;1.00;;;;;;5034931;28;20211;-49
2023/05/16 03:00:58;;;;;;;15.50;2.90;;;10.40;1.00;;;;;;5034650;28;20425;-49
2023/05/16 03:03:24;;;;;;;13.40;2.83;;;10.30;1.00;;;;;;5034635;28;20176;-48
2023/05/16 03:05:50;;;;;;;16.13;3.47;;;10.30;1.00;;;;;;5034582;28;20206;-49
2023/05/16 03:08:16;;;;;;;13.53;3.73;;;10.20;1.00;;;;;;5034321;28;20667;-49
2023/05/16 03:10:41;;;;;;;12.50;2.83;;;10.30;1.00;;;;;;5034532;28;20418;-49
2023/05/16 03:13:07;;;;;;;12.10;2.63;;;10.30;1.00;;;;;;5033719;28;20211;-49
2023/05/16 03:15:32;;;;;;;13.90;3.50;;;10.30;1.00;;;;;;5034430;28;20187;-49
2023/05/16 03:17:58;;;;;;;15.37;3.07;;;10.20;1.00;;;;;;5033410;28;20171;-49
2023/05/16 03:20:24;;;;;;;15.50;3.30;;;10.20;1.00;;;;;;5033932;28;20192;-49
2023/05/16 03:22:49;;;;;;;7.23;3.30;;;10.30;1.00;;;;;;5034563;28;20653;-49
2023/05/16 03:25:15;;;;;;;9.50;2.93;;;10.30;1.00;;;;;;5032567;28;20504;-49
2023/05/16 03:27:41;;;;;;;16.87;3.07;;;10.20;1.00;;;;;;5034373;28;20191;-48
2023/05/16 03:30:07;;;;;;;12.77;3.20;;;10.20;1.00;;;;;;5034637;28;20184;-49
2023/05/16 03:32:33;;;;;;;13.87;2.80;;;10.20;1.00;;;;;;5036187;28;20627;-49
2023/05/16 03:34:58;;;;;;;9.87;2.90;;;10.10;1.00;;;;;;5043009;28;20487;-49
2023/05/16 03:37:25;;;;;;;6.70;2.50;;;10.10;1.00;;;;;;5046087;28;20274;-49
2023/05/16 03:39:51;;;;;;;9.03;2.20;;;10.20;1.00;;;;;;5033566;28;20314;-49
2023/05/16 03:42:17;;;;;;;14.73;2.80;;;10.10;1.00;;;;;;5032261;28;20524;-49
2023/05/16 03:44:43;;;;;;;17.03;3.23;;;10.20;1.00;;;;;;5034437;28;20184;-49
2023/05/16 03:47:09;;;;;;;15.80;3.10;;;10.20;1.00;;;;;;5034535;28;20429;-49
2023/05/16 03:49:35;;;;;;;17.53;3.00;;;10.10;1.00;;;;;;5034253;28;20767;-49
2023/05/16 03:52:04;;;;;;;14.33;2.73;;;10.20;1.00;;;;;;5033659;28;20243;-49
2023/05/16 03:54:30;;;;;;;18.13;3.27;;;10.20;1.00;;;;;;5033230;28;20434;-49
2023/05/16 03:56:56;;;;;;;17.57;3.07;;;10.20;1.00;;;;;;5032437;28;20446;-49
2023/05/16 03:59:21;;;;;;;17.23;3.00;;;10.20;1.00;;;;;;5034141;28;20698;-49
2023/05/16 04:01:48;;;;;;;13.03;2.70;;;10.20;1.00;;;;;;5033971;28;20182;-49
2023/05/16 04:04:14;;;;;;;22.30;3.40;;;10.20;1.00;;;;;;5033085;28;20245;-49
2023/05/16 04:06:40;;;;;;;16.93;3.23;;;10.20;1.00;;;;;;5033224;28;20914;-49
2023/05/16 04:09:06;;;;;;;19.83;2.97;;;10.20;1.00;;;;;;5042804;28;20189;-49
2023/05/16 04:11:32;;;;;;;15.20;3.10;;;10.10;1.00;;;;;;5043148;28;20183;-49
2023/05/16 04:13:58;;;;;;;14.77;3.10;;;10.10;1.00;;;;;;5034421;28;20418;-49
2023/05/16 04:16:24;;;;;;;17.33;3.00;;;10.20;1.00;;;;;;5033857;28;20414;-49
2023/05/16 04:18:49;;;;;;;19.40;3.17;;;10.20;1.00;;;;;;5033278;28;20207;-49
2023/05/16 04:21:15;;;;;;;16.00;2.87;;;10.20;1.00;;;;;;5033767;28;20791;-49
2023/05/16 04:23:41;;;;;;;24.83;3.57;;;10.10;1.00;;;;;;5033933;28;20237;-48
2023/05/16 04:26:07;;;;;;;13.30;2.77;;;10.10;1.00;;;;;;5042865;28;20229;-49
2023/05/16 04:28:33;;;;;;;17.93;3.60;;;10.10;1.00;;;;;;5054324;28;20487;-49
2023/05/16 04:30:58;;;;;;;13.90;2.40;;;10.20;1.00;;;;;;5053615;28;20764;-49
2023/05/16 04:33:24;;;;;;;13.90;2.80;;;10.20;1.00;;;;;;5054032;28;20202;-48
2023/05/16 04:35:51;;;;;;;16.37;3.50;;;10.10;1.00;;;;;;5053793;28;20699;-49
2023/05/16 04:38:17;;;;;;;7.90;2.60;;;10.20;1.00;;;;;;5053883;28;20182;-49
2023/05/16 04:40:42;;;;;;;14.57;2.70;;;10.20;1.00;;;;;;5053776;28;20413;-49
2023/05/16 04:43:08;;;;;;;18.33;2.77;;;10.30;1.00;;;;;;5052697;28;20193;-49
2023/05/16 04:45:34;;;;;;;11.63;2.33;;;10.20;1.00;;;;;;5046575;28;20191;-48
2023/05/16 04:48:00;;;;;;;16.13;2.50;;;10.20;1.00;;;;;;5032138;28;20218;-49
2023/05/16 04:50:26;;;;;;;13.07;2.90;;;10.10;1.00;;;;;;5033330;28;20559;-48
2023/05/16 04:52:51;;;;;;;7.80;2.43;;;10.10;1.00;;;;;;5033577;28;20501;-49
2023/05/16 04:55:17;;;;;;;10.73;2.40;;;10.20;1.00;;;;;;5033402;28;20182;-49
2023/05/16 04:57:43;;;;;;;12.60;2.70;;;10.30;1.00;;;;;;5033633;28;20663;-48
2023/05/16 05:00:10;;;;;;;9.50;2.17;;;10.40;1.00;;;;;;5033939;28;20597;-48
2023/05/16 05:02:37;;;;;;;12.10;2.30;;;10.50;1.00;;;;;;5033572;28;20218;-49
2023/05/16 05:05:04;;;;;;;16.10;2.40;;;10.60;1.00;;;;;;5033537;28;20414;-49
2023/05/16 05:07:30;;;;;;;16.93;2.83;;;10.60;1.00;;;;;;5033812;28;20506;-48
2023/05/16 05:09:55;;;;;;;10.13;2.73;;;10.60;1.00;;;;;;5033326;28;21012;-49
2023/05/16 05:12:21;;;;;;;13.40;3.20;;;10.60;1.00;;;;;;5033555;28;20184;-49
2023/05/16 05:14:47;;;;;;;16.47;2.30;;;10.60;1.00;;;;;;5033275;28;20182;-49
2023/05/16 05:17:12;;;;;;;11.07;2.40;;;10.70;1.00;;;;;;5043106;28;20425;-49
2023/05/16 05:19:38;;;;;;;11.43;2.87;;;10.90;1.00;;;;;;5053024;28;20310;-49
2023/05/16 05:22:04;;;;;;;15.07;2.63;;;11.00;1.00;;;;;;5053051;28;20186;-48
2023/05/16 05:24:29;;;;;;;10.33;2.43;;;11.20;1.00;;;;;;5053407;28;20175;-49
2023/05/16 05:26:55;;;;;;;10.23;2.50;;;11.30;1.00;;;;;;5053369;28;20187;-49
2023/05/16 05:29:21;;;;;;;9.90;2.10;;;11.50;1.00;;;;;;5053484;28;20549;-49
2023/05/16 05:31:47;;;;;;;11.53;2.90;;;11.60;1.00;;;;;;5055924;28;20690;-49
2023/05/16 05:34:12;;;;;;;16.00;2.33;;;11.40;1.00;;;;;;5056018;28;20187;-48
2023/05/16 05:36:38;;;;;;;13.00;3.73;;;11.40;1.00;;;;;;5056907;28;20179;-48
2023/05/16 05:39:04;;;;;;;12.07;2.23;;;11.40;1.00;;;;;;5056946;28;20210;-49
2023/05/16 05:41:30;;;;;;;11.50;2.83;;;11.40;1.00;;;;;;5052332;28;20480;-49
2023/05/16 05:43:55;;;;;;;17.87;2.77;;;11.40;1.00;;;;;;5037093;28;20175;-49
2023/05/16 05:46:21;;;;;;;13.03;3.20;;;11.40;1.00;;;;;;5036561;28;20186;-49
2023/05/16 05:48:47;;;;;;;18.13;2.40;;;11.70;1.00;;;;;;5035736;28;20198;-49
2023/05/16 05:51:13;;;;;;;18.37;2.53;;;11.90;1.00;;;;;;5035449;28;20285;-49
2023/05/16 05:53:39;;;;;;;9.97;2.30;;;12.20;1.00;;;;;;5036806;28;20184;-48
2023/05/16 05:56:05;;;;;;;19.17;3.00;;;12.60;1.00;;;;;;5036664;28;20414;-49
2023/05/16 05:58:31;;;;;;;9.40;2.10;;;12.70;1.00;;;;;;5036334;28;20500;-48
2023/05/16 06:00:56;;;;;;;9.47;2.20;;;12.80;1.00;;;;;;5036167;28;20229;-49
2023/05/16 06:03:22;;;;;;;7.93;2.07;;;12.80;1.00;;;;;;5035565;28;20184;-49
2023/05/16 06:05:48;;;;;;;9.57;1.90;;;12.60;1.00;;;;;;5035668;28;20187;-49
2023/05/16 06:08:13;;;;;;;6.43;2.10;;;12.40;1.00;;;;;;5033947;28;20194;-49
2023/05/16 06:10:39;;;;;;;6.30;1.87;;;12.50;1.00;;;;;;5034481;28;20191;-49
2023/05/16 06:13:04;;;;;;;6.70;1.70;;;12.50;1.00;;;;;;5035925;28;20195;-49
2023/05/16 06:15:30;;;;;;;9.20;2.03;;;12.70;1.00;;;;;;5035472;28;20195;-49
2023/05/16 06:17:56;;;;;;;16.80;2.13;;;12.50;1.00;;;;;;5033867;28;20234;-49
2023/05/16 06:20:22;;;;;;;14.83;2.03;;;12.20;1.00;;;;;;5035727;28;20281;-49
2023/05/16 06:22:48;;;;;;;9.53;2.50;;;12.00;1.00;;;;;;5035464;28;20438;-49
2023/05/16 06:25:13;;;;;;;16.73;2.47;;;11.70;1.00;;;;;;5034002;28;20195;-49
2023/05/16 06:27:39;;;;;;;16.23;2.40;;;11.60;1.00;;;;;;5035455;28;20195;-49
2023/05/16 06:30:05;;;;;;;10.50;1.90;;;11.40;1.00;;;;;;5035016;28;20223;-49
2023/05/16 06:32:31;;;;;;;10.30;2.13;;;11.30;1.00;;;;;;5034780;28;20218;-49
2023/05/16 06:34:56;;;;;;;13.37;2.27;;;11.40;1.00;;;;;;5035916;28;20789;-49
2023/05/16 06:37:22;;;;;;;9.50;2.23;;;11.30;1.00;;;;;;5034594;28;20195;-49
2023/05/16 06:39:48;;;;;;;10.13;2.30;;;11.10;1.00;;;;;;5033774;28;20219;-49
2023/05/16 06:42:14;;;;;;;11.43;2.50;;;11.10;1.00;;;;;;5033313;28;20183;-49
2023/05/16 06:44:40;;;;;;;8.73;2.37;;;11.10;1.00;;;;;;5035027;28;20328;-49
2023/05/16 06:47:05;;;;;;;11.37;2.77;;;11.00;1.00;;;;;;5035127;28;20184;-49
2023/05/16 06:49:32;;;;;;;13.50;1.90;;;11.30;1.00;;;;;;5034950;28;20198;-49
2023/05/16 06:51:57;;;;;;;6.50;1.83;;;11.90;1.00;;;;;;5033089;28;20227;-49
2023/05/16 06:54:23;;;;;;;14.97;2.17;;;12.70;1.00;;;;;;5035425;28;20561;-49
2023/05/16 06:56:48;;;;;;;6.27;1.60;;;13.20;1.00;;;;;;5032707;28;20189;-49
2023/05/16 06:59:14;;;;;;;10.33;1.93;;;13.30;1.00;;;;;;5034524;28;20250;-49
2023/05/16 07:01:40;;;;;;;13.63;2.27;;;12.90;1.00;;;;;;5033740;28;20200;-49
2023/05/16 07:04:06;;;;;;;16.03;1.83;;;12.50;1.00;;;;;;5035414;28;20185;-49
2023/05/16 07:06:31;;;;;;;6.37;1.77;;;12.30;1.00;;;;;;5034314;28;20956;-49
2023/05/16 07:08:57;;;;;;;9.20;1.77;;;12.30;1.00;;;;;;5032016;28;20249;-49
2023/05/16 07:11:23;;;;;;;17.77;1.80;;;12.50;1.00;;;;;;5032551;28;20195;-49
2023/05/16 07:13:48;;;;;;;11.17;2.17;;;12.80;1.00;;;;;;5034147;28;20180;-49
2023/05/16 07:16:14;;;;;;;7.63;1.73;;;13.20;1.00;;;;;;5033256;28;20183;-49
2023/05/16 07:18:40;;;;;;;8.83;2.20;;;13.50;1.00;;;;;;5034137;28;20215;-49
2023/05/16 07:21:05;;;;;;;9.77;2.30;;;13.80;1.00;;;;;;5034096;28;20199;-49
2023/05/16 07:23:31;;;;;;;16.37;2.80;;;14.10;1.00;;;;;;5031870;28;20192;-49
2023/05/16 07:25:57;;;;;;;3.23;1.30;;;14.30;1.00;;;;;;5032984;28;20188;-50
2023/05/16 07:28:23;;;;;;;15.73;2.17;;;14.40;1.00;;;;;;5033914;28;20188;-49
2023/05/16 07:30:48;;;;;;;10.30;2.20;;;14.70;1.00;;;;;;5034441;28;20942;-49
2023/05/16 07:33:14;;;;;;;9.17;1.80;;;14.70;1.00;;;;;;5033145;28;20287;-49
2023/05/16 07:35:40;;;;;;;10.07;1.70;;;14.50;1.00;;;;;;5034735;28;20188;-49
2023/05/16 07:38:05;;;;;;;8.73;1.67;;;14.70;1.00;;;;;;5032830;28;20213;-49
2023/05/16 07:40:31;;;;;;;11.00;1.80;;;15.00;1.00;;;;;;5033195;28;20200;-49
2023/05/16 07:42:57;;;;;;;9.67;1.57;;;14.80;1.00;;;;;;5034683;28;20258;-49
2023/05/16 07:45:22;;;;;;;6.00;1.70;;;14.60;1.00;;;;;;5034812;28;20195;-49
2023/05/16 07:47:48;;;;;;;5.70;1.87;;;14.70;1.00;;;;;;5034458;28;20426;-49
2023/05/16 07:50:14;;;;;;;4.97;1.20;;;14.20;1.00;;;;;;5034389;28;20708;-49
2023/05/16 07:52:39;;;;;;;8.57;1.70;;;13.60;1.00;;;;;;5034079;28;20552;-49
2023/05/16 07:55:06;;;;;;;4.40;1.57;;;13.80;1.00;;;;;;5034121;28;20229;-49
2023/05/16 07:57:31;;;;;;;4.87;1.57;;;14.30;1.00;;;;;;5034322;28;20274;-49
2023/05/16 07:59:57;;;;;;;8.67;1.70;;;14.90;1.00;;;;;;5034236;28;20535;-49
2023/05/16 08:02:25;;;;;;;7.03;1.87;;;15.00;1.00;;;;;;5034274;28;20176;-49
2023/05/16 08:04:50;;;;;;;11.60;2.10;;;15.20;1.00;;;;;;5034231;28;20212;-49
2023/05/16 08:07:16;;;;;;;5.63;1.40;;;15.40;1.00;;;;;;5037581;28;20862;-50
2023/05/16 08:09:41;;;;;;;10.70;1.30;;;15.60;1.00;;;;;;5034139;28;20555;-50
2023/05/16 08:12:08;;;;;;;4.60;1.50;;;16.10;1.00;;;;;;5034123;28;20553;-50
2023/05/16 08:14:33;;;;;;;5.80;1.40;;;16.60;1.00;;;;;;5034079;28;20671;-50
2023/05/16 08:16:59;;;;;;;9.90;1.93;;;16.80;1.00;;;;;;5033702;28;20428;-50
2023/05/16 08:19:25;;;;;;;6.40;1.93;;;16.80;1.00;;;;;;5033704;28;20209;-50
2023/05/16 08:21:51;;;;;;;13.00;2.20;;;16.20;1.00;;;;;;5034025;28;20451;-50
2023/05/16 08:24:17;;;;;;;5.37;1.70;;;15.20;1.00;;;;;;5044166;28;20662;-50
2023/05/16 08:26:42;;;;;;;8.80;2.30;;;14.50;1.00;;;;;;5054169;28;20700;-50
2023/05/16 08:29:08;;;;;;;12.43;2.47;;;13.90;1.00;;;;;;5054022;28;20187;-49
2023/05/16 08:31:33;;;;;;;10.53;1.93;;;13.60;1.00;;;;;;5053963;28;20185;-49
2023/05/16 08:34:00;;;;;;;11.20;1.60;;;13.50;1.00;;;;;;5053777;28;20322;-50
2023/05/16 08:36:27;;;;;;;15.47;2.60;;;13.90;1.00;;;;;;5035738;28;20192;-49
2023/05/16 08:38:52;;;;;;;11.37;2.07;;;14.70;1.00;;;;;;5034104;28;20464;-50
2023/05/16 08:41:18;;;;;;;9.47;1.73;;;15.80;1.00;;;;;;5033948;28;20743;-50
2023/05/16 08:43:43;;;;;;;8.50;1.80;;;16.30;1.00;;;;;;5031471;28;20193;-50
2023/05/16 08:46:09;;;;;;;6.30;1.33;;;16.80;1.00;;;;;;5033252;28;20202;-50
2023/05/16 08:48:37;;;;;;;5.60;1.40;;;17.20;1.00;;;;;;5030965;28;20196;-51
2023/05/16 08:51:06;;;;;;;5.93;1.53;;;17.50;1.00;;;;;;5032521;28;20246;-50
2023/05/16 08:53:43;;;;;;;4.60;1.50;;;17.00;1.00;;;;;;5030828;28;20460;-50
2023/05/16 08:56:11;;;;;;;3.73;1.33;;;17.20;1.00;;;;;;5031778;28;20468;-50
2023/05/16 08:58:38;;;;;;;6.30;1.77;;;16.80;1.00;;;;;;5046756;28;20478;-50
2023/05/16 09:01:07;;;;;;;7.30;1.40;;;17.20;1.00;;;;;;5049383;28;20418;-50
2023/05/16 09:03:35;;;;;;;5.23;1.57;;;17.30;1.00;;;;;;5033875;28;20426;-50
2023/05/16 09:06:01;;;;;;;5.70;1.60;;;16.50;1.00;;;;;;5035774;28;20509;-50
2023/05/16 09:08:27;;;;;;;4.40;1.50;;;16.40;1.00;;;;;;5037983;28;20427;-50
2023/05/16 09:10:52;;;;;;;6.90;2.30;;;16.50;1.00;;;;;;5037244;28;20425;-50
2023/05/16 09:13:18;;;;;;;7.00;1.73;;;17.10;1.00;;;;;;5036965;28;20270;-50
2023/05/16 09:15:44;;;;;;;8.63;1.63;;;16.90;1.00;;;;;;5051386;28;20219;-50
2023/05/16 09:18:12;;;;;;;7.63;1.60;;;16.40;1.00;;;;;;5056816;28;20185;-50
2023/05/16 09:20:45;;;;;;;5.33;1.80;;;16.30;1.00;;;;;;5057337;28;20270;-50
2023/05/16 09:23:11;;;;;;;4.37;1.40;;;16.90;1.00;;;;;;5057229;28;20421;-51
2023/05/16 09:25:38;;;;;;;11.60;2.27;;;17.30;1.00;;;;;;5055882;28;20448;-51
2023/05/16 09:28:04;;;;;;;10.30;1.70;;;17.60;1.00;;;;;;5057028;28;20655;-50
2023/05/16 09:30:32;;;;;;;14.10;2.20;;;16.60;1.00;;;;;;5057028;28;20501;-50
2023/05/16 09:32:58;;;;;;;12.03;2.00;;;15.90;1.00;;;;;;5056225;28;20231;-50
2023/05/16 09:35:24;;;;;;;6.47;1.47;;;15.80;1.00;;;;;;5056566;28;20762;-50
2023/05/16 09:37:53;;;;;;;4.67;1.63;;;16.10;1.00;;;;;;5056922;28;20218;-50
2023/05/16 09:40:22;;;;;;;6.10;1.80;;;16.60;1.00;;;;;;5056731;28;20478;-51
2023/05/16 09:43:05;;;;;;;12.93;1.50;;;17.10;99.90;;;;;;5056813;28;20950;-50
2023/05/16 09:45:31;;;;;;;8.60;1.93;;;17.60;99.90;;;;;;5056741;28;20473;-51
2023/05/16 09:48:05;;;;;;;13.30;2.20;;;18.40;99.90;;;;;;5056711;28;20490;-51
2023/05/16 09:50:33;;;;;;;11.17;1.80;;;18.50;99.90;;;;;;5027139;28;20472;-51
2023/05/16 09:52:59;;;;;;;8.13;1.87;;;17.60;99.90;;;;;;5036392;28;20429;-50
2023/05/16 09:55:24;;;;;;;10.43;2.70;;;16.30;99.90;;;;;;5036555;28;20473;-50
2023/05/16 09:57:50;;;;;;;5.00;1.60;;;15.50;99.90;;;;;;5036329;28;20543;-50
2023/05/16 10:00:16;;;;;;;11.40;2.30;;;15.40;99.90;;;;;;5036353;28;20205;-50
2023/05/16 10:02:42;;;;;;;9.97;2.00;;;15.10;99.90;;;;;;5034901;28;20520;-50
2023/05/16 10:05:08;;;;;;;8.73;1.87;;;14.40;99.90;;;;;;5037525;28;20427;-51
2023/05/16 10:07:34;;;;;;;18.63;2.03;;;14.00;99.90;;;;;;5056222;28;20418;-50
2023/05/16 10:10:04;;;;;;;5.60;2.30;;;13.80;1.00;;;;;;5056394;28;20183;-50
2023/05/16 10:12:30;;;;;;;14.00;2.20;;;14.30;1.00;;;;;;5056428;28;20426;-50
2023/05/16 10:14:57;;;;;;;18.77;2.70;;;15.30;1.00;;;;;;5056518;28;20445;-50
2023/05/16 10:17:24;;;;;;;16.43;2.37;;;15.80;1.00;;;;;;5055067;28;20769;-50
2023/05/16 10:19:51;;;;;;;5.13;1.80;;;15.80;1.00;;;;;;5041515;28;20472;-50
2023/05/16 10:22:18;;;;;;;11.23;2.23;;;15.60;1.00;;;;;;5034566;28;21212;-50
2023/05/16 10:24:52;;;;;;;7.40;2.57;;;15.40;1.00;;;;;;5035724;28;20426;-50
2023/05/16 10:27:18;;;;;;;9.67;2.83;;;16.00;1.00;;;;;;5035724;28;20897;-50
2023/05/16 10:29:44;;;;;;;11.00;2.00;;;17.30;1.00;;;;;;5035757;28;20939;-51
2023/05/16 10:32:12;;;;;;;10.20;1.87;;;18.30;1.00;;;;;;5035836;28;20781;-50
2023/05/16 10:34:39;;;;;;;9.00;2.23;;;18.60;99.90;;;;;;5033832;28;20447;-51
2023/05/16 10:37:06;;;;;;;7.30;2.17;;;18.40;99.90;;;;;;5035486;28;20511;-50
2023/05/16 10:39:32;;;;;;;9.03;2.10;;;18.00;99.90;;;;;;5039686;28;21055;-51
2023/05/16 10:41:58;;;;;;;6.77;1.80;;;17.10;99.90;;;;;;5040911;28;20419;-50
2023/05/16 10:44:25;;;;;;;8.67;2.13;;;17.30;99.90;;;;;;5034529;28;20540;-50
2023/05/16 10:46:50;;;;;;;9.47;2.00;;;17.10;99.90;;;;;;5034354;28;20985;-51
2023/05/16 10:49:20;;;;;;;9.57;2.10;;;17.10;99.90;;;;;;5033573;28;20547;-50
2023/05/16 10:52:09;;;;;;;2.97;1.60;;;16.90;99.90;;;;;;5034349;28;20234;-50
2023/05/16 10:54:42;;;;;;;5.23;1.50;;;16.70;99.90;;;;;;5034012;28;20451;-50
2023/05/16 10:57:10;;;;;;;8.07;1.93;;;15.80;99.90;;;;;;5035481;28;20409;-50
2023/05/16 10:59:44;;;;;;;7.13;2.00;;;15.40;99.90;;;;;;5035354;28;20489;-50
2023/05/16 11:02:32;;;;;;;7.20;2.20;;;14.70;99.90;;;;;;5034782;28;20926;-50
2023/05/16 11:05:00;;;;;;;11.13;2.43;;;14.50;99.90;;;;;;5035001;28;20405;-50
2023/05/16 11:07:33;;;;;;;4.47;1.60;;;14.60;99.90;;;;;;5034638;28;20957;-50
2023/05/16 11:10:08;;;;;;;4.93;1.33;;;15.20;1.00;;;;;;5034904;28;20400;-50
2023/05/16 11:12:37;;;;;;;4.07;1.03;;;16.80;99.90;;;;;;5034777;28;20429;-50
2023/05/16 11:15:18;;;;;;;7.30;2.10;;;17.10;99.90;;;;;;5034378;28;20934;-50
2023/05/16 11:17:43;;;;;;;5.43;1.60;;;17.00;99.90;;;;;;5034763;28;20408;-50
2023/05/16 11:20:25;;;;;;;4.40;1.00;;;17.50;99.90;;;;;;5034628;28;20477;-50
2023/05/16 11:22:50;;;;;;;7.20;1.30;;;17.70;99.90;;;;;;5034330;28;20704;-50
2023/05/16 11:25:33;;;;;;;8.87;1.60;;;16.80;99.90;;;;;;5034188;28;20523;-50
2023/05/16 11:27:59;;;;;;;4.13;1.30;;;16.40;99.90;;;;;;5034185;28;20178;-51
2023/05/16 11:30:25;;;;;;;4.77;1.90;;;17.30;99.90;;;;;;5034351;28;20425;-51
2023/05/16 11:32:51;;;;;;;4.03;1.50;;;18.10;99.90;;;;;;5034106;28;20422;-50
2023/05/16 11:35:17;;;;;;;5.80;2.00;;;18.40;99.90;;;;;;5034385;28;20642;-50
2023/05/16 11:37:46;;;;;;;6.23;1.37;;;18.20;99.90;;;;;;5034307;28;20182;-50
2023/05/16 11:40:13;;;;;;;4.30;1.40;;;17.80;99.90;;;;;;5034201;28;20470;-50
2023/05/16 11:42:40;;;;;;;3.93;1.50;;;17.20;99.90;;;;;;5034232;28;20416;-50
2023/05/16 11:45:16;;;;;;;5.03;1.20;;;17.50;99.90;;;;;;5034229;28;20444;-50
2023/05/16 11:47:44;;;;;;;3.97;1.20;;;17.90;99.90;;;;;;5034160;28;20420;-51
2023/05/16 11:50:14;;;;;;;4.67;1.33;;;18.30;99.90;;;;;;5033600;28;20517;-51
2023/05/16 11:52:43;;;;;;;7.33;1.87;;;18.90;99.90;;;;;;5033690;28;20949;-50
2023/05/16 11:55:10;;;;;;;9.70;1.50;;;19.00;99.90;;;;;;5034386;28;20436;-51
2023/05/16 11:57:38;;;;;;;5.37;1.30;;;19.00;99.90;;;;;;5033930;28;20475;-51
2023/05/16 12:00:18;;;;;;;3.77;1.03;;;19.20;99.90;;;;;;5033615;28;20464;-51
2023/05/16 12:02:46;;;;;;;7.03;1.23;;;19.10;99.90;;;;;;5033944;28;20412;-51
2023/05/16 12:05:12;;;;;;;10.77;1.40;;;19.30;99.90;;;;;;5033938;28;20424;-50
2023/05/16 12:07:38;;;;;;;5.40;1.40;;;18.70;99.90;;;;;;5033879;28;20413;-50
2023/05/16 12:10:10;;;;;;;11.03;2.00;;;17.70;99.90;;;;;;5033542;28;20904;-50
2023/05/16 12:12:38;;;;;;;7.73;1.80;;;17.60;99.90;;;;;;5033810;28;20269;-50
2023/05/16 12:15:05;;;;;;;9.93;2.00;;;17.70;99.90;;;;;;5033879;28;20786;-50
2023/05/16 12:17:35;;;;;;;7.03;1.50;;;17.90;99.90;;;;;;5033820;28;20420;-50
2023/05/16 12:20:05;;;;;;;2.20;1.00;;;18.40;99.90;;;;;;5033587;28;20467;-51
2023/05/16 12:22:34;;;;;;;5.57;1.40;;;18.30;99.90;;;;;;5033478;28;20404;-50
2023/05/16 12:25:17;;;;;;;5.77;1.40;;;17.90;99.90;;;;;;5033588;28;20512;-50
2023/05/16 12:27:43;;;;;;;3.47;1.50;;;17.90;99.90;;;;;;5033346;28;20769;-50
2023/05/16 12:30:09;;;;;;;5.83;1.27;;;17.50;99.90;;;;;;5033790;28;20425;-51
2023/05/16 12:32:37;;;;;;;3.73;1.40;;;17.60;99.90;;;;;;5033167;28;20445;-50
2023/05/16 12:35:03;;;;;;;2.93;1.33;;;17.70;99.90;;;;;;5033165;28;20186;-50
2023/05/16 12:37:29;;;;;;;2.10;1.00;;;18.20;99.90;;;;;;5033654;28;20509;-50
2023/05/16 12:39:59;;;;;;;2.50;1.20;;;18.60;99.90;;;;;;5033450;28;20307;-50
2023/05/16 12:42:26;;;;;;;6.03;1.57;;;18.40;99.90;;;;;;5037356;28;20175;-50
2023/05/16 12:44:55;;;;;;;5.93;1.73;;;18.40;99.90;;;;;;5037247;28;20758;-50
2023/05/16 12:47:21;;;;;;;5.90;1.70;;;18.70;99.90;;;;;;5037516;28;20790;-50